Time;durP1;ratioP1;P1;durP2;ratioP2;P2;SDS_P1;SDS_P2;PMS_P1;PMS_P2;Temp;Humidity;BMP_temperature;BMP_pressure;BME280_temperature;BME280_humidity;BME280_pressure;Samples;Min_cycle;Max_cycle;Signal;HPM_P1;HPM_P2
2023/04/21 00:02:00;;;;;;;17.93;14.20;;;7.00;99.90;;;;;;5035846;28;20204;-50
2023/04/21 00:04:26;;;;;;;19.13;15.20;;;7.00;99.90;;;;;;5035911;28;20174;-50
2023/04/21 00:06:52;;;;;;;21.30;15.67;;;7.00;99.90;;;;;;5035804;28;20256;-50
2023/04/21 00:09:17;;;;;;;18.70;15.97;;;7.00;99.90;;;;;;5036025;28;20190;-50
2023/04/21 00:11:43;;;;;;;19.60;15.27;;;7.00;99.90;;;;;;5035195;28;20567;-50
2023/04/21 00:14:09;;;;;;;21.70;16.97;;;7.10;99.90;;;;;;5035936;28;20604;-49
2023/04/21 00:16:34;;;;;;;20.00;16.60;;;7.00;99.90;;;;;;5035572;28;20208;-52
2023/04/21 00:19:01;;;;;;;23.77;17.93;;;7.00;99.90;;;;;;5035539;28;20178;-50
2023/04/21 00:21:27;;;;;;;22.00;17.20;;;7.10;99.90;;;;;;5035384;28;20184;-50
2023/04/21 00:23:52;;;;;;;19.80;16.87;;;7.10;99.90;;;;;;5035337;28;20208;-49
2023/04/21 00:26:19;;;;;;;20.33;16.53;;;7.10;99.90;;;;;;5035295;28;20186;-50
2023/04/21 00:28:45;;;;;;;21.70;16.40;;;7.10;99.90;;;;;;5035461;28;20551;-51
2023/04/21 00:31:10;;;;;;;20.97;15.73;;;7.10;99.90;;;;;;5035664;28;20178;-52
2023/04/21 00:33:36;;;;;;;21.60;16.70;;;7.10;99.90;;;;;;5035085;28;20213;-50
2023/04/21 00:36:02;;;;;;;23.33;17.63;;;7.10;99.90;;;;;;5034937;28;20610;-49
2023/04/21 00:38:28;;;;;;;23.27;17.97;;;7.10;99.90;;;;;;5035075;28;20254;-51
2023/04/21 00:40:53;;;;;;;24.10;19.10;;;7.10;99.90;;;;;;5035421;28;20186;-50
2023/04/21 00:43:19;;;;;;;22.03;18.30;;;7.10;99.90;;;;;;5034995;28;20684;-51
2023/04/21 00:45:47;;;;;;;23.77;19.30;;;7.10;99.90;;;;;;5035348;28;20195;-50
2023/04/21 00:48:23;;;;;;;23.03;18.87;;;7.10;99.90;;;;;;5035289;28;20193;-50
2023/04/21 00:50:48;;;;;;;26.07;20.70;;;7.10;99.90;;;;;;5035227;28;20169;-49
2023/04/21 00:53:15;;;;;;;26.87;22.00;;;7.10;99.90;;;;;;5017187;28;20218;-49
2023/04/21 00:55:41;;;;;;;29.60;21.83;;;7.10;99.90;;;;;;5034748;28;20208;-50
2023/04/21 00:58:06;;;;;;;26.20;20.90;;;7.10;99.90;;;;;;5034680;28;20494;-49
2023/04/21 01:00:32;;;;;;;25.80;21.70;;;7.10;99.90;;;;;;5034589;28;20249;-50
2023/04/21 01:03:00;;;;;;;30.67;22.83;;;7.10;99.90;;;;;;5034629;28;20233;-50
2023/04/21 01:05:26;;;;;;;29.40;23.10;;;7.10;99.90;;;;;;5016780;28;20267;-50
2023/04/21 01:07:52;;;;;;;30.30;23.17;;;7.10;99.90;;;;;;5034848;28;20205;-51
2023/04/21 01:10:17;;;;;;;28.23;22.50;;;7.10;99.90;;;;;;5034608;28;20183;-52
2023/04/21 01:12:44;;;;;;;30.13;22.33;;;7.10;99.90;;;;;;5034443;28;20281;-51
2023/04/21 01:15:11;;;;;;;30.03;23.20;;;7.10;99.90;;;;;;5034425;28;20250;-51
2023/04/21 01:17:37;;;;;;;32.50;24.17;;;7.20;99.90;;;;;;5034477;28;20190;-51
2023/04/21 01:20:07;;;;;;;32.23;23.10;;;7.20;99.90;;;;;;5034725;28;20177;-51
2023/04/21 01:22:40;;;;;;;32.30;24.10;;;7.20;99.90;;;;;;5033430;28;20284;-52
2023/04/21 01:25:07;;;;;;;30.93;23.33;;;7.20;99.90;;;;;;5034410;28;20168;-50
2023/04/21 01:27:32;;;;;;;32.43;22.73;;;7.20;99.90;;;;;;5034557;28;20189;-51
2023/04/21 01:29:58;;;;;;;29.07;22.33;;;7.20;99.90;;;;;;5034544;28;20518;-50
2023/04/21 01:32:27;;;;;;;34.47;25.77;;;7.20;99.90;;;;;;5034181;28;20193;-51
2023/04/21 01:34:54;;;;;;;32.30;24.07;;;7.20;99.90;;;;;;5034159;28;20175;-52
2023/04/21 01:37:23;;;;;;;34.63;24.37;;;7.20;99.90;;;;;;5034262;28;20307;-50
2023/04/21 01:39:53;;;;;;;31.10;21.53;;;7.20;99.90;;;;;;5033943;28;20185;-50
2023/04/21 01:42:20;;;;;;;31.77;23.50;;;7.20;99.90;;;;;;5034071;28;20206;-49
2023/04/21 01:44:46;;;;;;;31.23;23.07;;;7.20;99.90;;;;;;5034136;28;20181;-50
2023/04/21 01:47:12;;;;;;;32.63;24.43;;;7.20;99.90;;;;;;5034213;28;20630;-50
2023/04/21 01:49:37;;;;;;;34.37;26.13;;;7.20;99.90;;;;;;5018204;28;20217;-51
2023/04/21 01:52:03;;;;;;;35.13;25.27;;;7.30;99.90;;;;;;5033843;28;20189;-50
2023/04/21 01:54:29;;;;;;;38.03;25.13;;;7.30;99.90;;;;;;5033814;28;20592;-50
2023/04/21 01:56:55;;;;;;;33.70;25.03;;;7.30;99.90;;;;;;5033932;28;20291;-52
2023/04/21 01:59:21;;;;;;;35.67;26.30;;;7.30;99.90;;;;;;5033955;28;20177;-50
2023/04/21 02:01:46;;;;;;;37.57;25.33;;;7.30;99.90;;;;;;5033631;28;20251;-50
2023/04/21 02:04:12;;;;;;;32.80;23.63;;;7.30;99.90;;;;;;5033962;28;20177;-50
2023/04/21 02:06:37;;;;;;;35.53;24.70;;;7.30;99.90;;;;;;5033613;28;20558;-49
2023/04/21 02:09:03;;;;;;;30.63;22.90;;;7.30;99.90;;;;;;5033522;28;20180;-51
2023/04/21 02:11:29;;;;;;;34.70;24.73;;;7.30;99.90;;;;;;5033487;28;20185;-51
2023/04/21 02:13:54;;;;;;;31.33;23.57;;;7.30;99.90;;;;;;5033766;28;20181;-51
2023/04/21 02:16:25;;;;;;;36.10;25.30;;;7.30;99.90;;;;;;5033595;28;20204;-49
2023/04/21 02:18:51;;;;;;;29.27;22.80;;;7.30;99.90;;;;;;5034060;28;20171;-51
2023/04/21 02:21:16;;;;;;;32.77;23.17;;;7.30;99.90;;;;;;5033213;28;20618;-51
2023/04/21 02:23:42;;;;;;;32.37;23.53;;;7.30;99.90;;;;;;5033388;28;20255;-51
2023/04/21 02:26:08;;;;;;;32.77;22.57;;;7.30;99.90;;;;;;5033560;28;20182;-51
2023/04/21 02:28:33;;;;;;;34.00;23.63;;;7.30;99.90;;;;;;5033441;28;20649;-50
2023/04/21 02:30:59;;;;;;;34.37;25.23;;;7.30;99.90;;;;;;5033497;28;20174;-51
2023/04/21 02:33:25;;;;;;;33.80;23.73;;;7.30;99.90;;;;;;5032953;28;20283;-49
2023/04/21 02:35:50;;;;;;;35.27;24.60;;;7.30;99.90;;;;;;5033338;28;20600;-51
2023/04/21 02:38:16;;;;;;;34.43;22.93;;;7.30;99.90;;;;;;5033206;28;20212;-52
2023/04/21 02:40:41;;;;;;;33.13;23.60;;;7.30;99.90;;;;;;5033036;28;20244;-51
2023/04/21 02:43:07;;;;;;;36.63;24.40;;;7.30;99.90;;;;;;5032940;28;20235;-52
2023/04/21 02:45:33;;;;;;;33.67;23.53;;;7.30;99.90;;;;;;5033264;28;20267;-50
2023/04/21 02:47:58;;;;;;;33.83;24.77;;;7.30;99.90;;;;;;5015827;28;20201;-50
2023/04/21 02:50:24;;;;;;;32.93;24.53;;;7.30;99.90;;;;;;5035272;28;20244;-49
2023/04/21 02:52:50;;;;;;;37.80;25.43;;;7.30;99.90;;;;;;5033139;28;20207;-48
2023/04/21 02:55:15;;;;;;;33.13;23.03;;;7.30;99.90;;;;;;5033280;28;20201;-48
2023/04/21 02:57:41;;;;;;;36.17;24.17;;;7.20;99.90;;;;;;5033529;28;20169;-50
2023/04/21 03:00:10;;;;;;;37.03;23.87;;;7.20;99.90;;;;;;5033318;28;20177;-50
2023/04/21 03:02:36;;;;;;;33.17;23.70;;;7.20;99.90;;;;;;5033893;28;20205;-50
2023/04/21 03:05:03;;;;;;;35.30;23.17;;;7.20;99.90;;;;;;5033077;28;20600;-49
2023/04/21 03:07:28;;;;;;;33.83;22.83;;;7.20;99.90;;;;;;5032990;28;20175;-49
2023/04/21 03:09:54;;;;;;;32.43;22.93;;;7.20;99.90;;;;;;5033840;28;20176;-51
2023/04/21 03:12:19;;;;;;;30.27;22.13;;;7.20;99.90;;;;;;5032856;28;20232;-50
2023/04/21 03:14:45;;;;;;;31.47;21.77;;;7.20;99.90;;;;;;5033503;28;20176;-51
2023/04/21 03:17:11;;;;;;;31.03;21.97;;;7.20;99.90;;;;;;5033139;28;20353;-52
2023/04/21 03:19:36;;;;;;;28.50;20.53;;;7.20;99.90;;;;;;5033013;28;20189;-51
2023/04/21 03:22:02;;;;;;;30.30;20.83;;;7.20;99.90;;;;;;5032855;28;20185;-51
2023/04/21 03:24:28;;;;;;;32.97;21.93;;;7.20;99.90;;;;;;5032872;28;20185;-50
2023/04/21 03:26:55;;;;;;;28.67;20.70;;;7.10;99.90;;;;;;5015489;28;20189;-49
2023/04/21 03:29:21;;;;;;;30.20;21.37;;;7.20;99.90;;;;;;5032881;28;20243;-51
2023/04/21 03:31:47;;;;;;;29.90;21.47;;;7.10;99.90;;;;;;5032744;28;20196;-53
2023/04/21 03:34:13;;;;;;;29.97;20.13;;;7.10;99.90;;;;;;5032885;28;20240;-52
2023/04/21 03:36:38;;;;;;;30.53;20.93;;;7.10;99.90;;;;;;5033355;28;20209;-53
2023/04/21 03:39:04;;;;;;;30.47;21.17;;;7.00;99.90;;;;;;5032758;28;20243;-50
2023/04/21 03:41:30;;;;;;;31.23;21.23;;;7.00;99.90;;;;;;5014904;28;20208;-51
2023/04/21 03:43:55;;;;;;;33.80;20.63;;;6.90;99.90;;;;;;5014992;28;20616;-52
2023/04/21 03:46:21;;;;;;;32.00;21.27;;;6.90;99.90;;;;;;5034877;28;20291;-52
2023/04/21 03:48:47;;;;;;;29.37;20.33;;;6.80;99.90;;;;;;5038104;28;20188;-47
2023/04/21 03:51:13;;;;;;;28.77;20.07;;;6.80;99.90;;;;;;5018532;28;20180;-47
2023/04/21 03:53:39;;;;;;;27.90;20.37;;;6.70;99.90;;;;;;5036406;28;20188;-46
2023/04/21 03:56:05;;;;;;;28.57;19.47;;;6.70;99.90;;;;;;5036290;28;20201;-47
2023/04/21 03:58:31;;;;;;;30.57;20.13;;;6.60;99.90;;;;;;5036775;28;20640;-46
2023/04/21 04:00:56;;;;;;;27.90;19.33;;;6.50;99.90;;;;;;5036101;28;20181;-44
2023/04/21 04:03:22;;;;;;;27.97;18.27;;;6.40;99.90;;;;;;5036834;28;20197;-45
2023/04/21 04:05:47;;;;;;;27.90;18.80;;;6.30;99.90;;;;;;5036107;28;20185;-43
2023/04/21 04:08:13;;;;;;;29.60;19.70;;;6.30;99.90;;;;;;5035856;28;20555;-45
2023/04/21 04:10:39;;;;;;;28.00;18.40;;;6.20;99.90;;;;;;5036080;28;20566;-46
2023/04/21 04:13:04;;;;;;;26.20;18.33;;;6.20;99.90;;;;;;5035986;28;20216;-46
2023/04/21 04:15:30;;;;;;;25.97;19.53;;;6.10;99.90;;;;;;5035721;28;20283;-47
2023/04/21 04:17:55;;;;;;;24.77;18.87;;;6.10;99.90;;;;;;5035696;28;20204;-45
2023/04/21 04:20:21;;;;;;;26.00;19.20;;;6.00;99.90;;;;;;5035939;28;20587;-44
2023/04/21 04:22:47;;;;;;;28.40;19.60;;;6.00;99.90;;;;;;5017842;28;20232;-46
2023/04/21 04:25:15;;;;;;;25.20;18.37;;;6.00;99.90;;;;;;5017853;28;20671;-46
2023/04/21 04:27:44;;;;;;;27.00;19.53;;;5.90;99.90;;;;;;5017786;28;20267;-45
2023/04/21 04:30:11;;;;;;;26.20;19.27;;;5.90;99.90;;;;;;5035706;28;20181;-46
2023/04/21 04:32:38;;;;;;;27.77;19.43;;;5.90;99.90;;;;;;5035434;28;20296;-46
2023/04/21 04:35:05;;;;;;;26.87;18.87;;;5.80;99.90;;;;;;5035279;28;20256;-48
2023/04/21 04:37:33;;;;;;;27.83;19.47;;;5.80;99.90;;;;;;5035335;28;20177;-46
2023/04/21 04:39:59;;;;;;;26.87;19.57;;;5.80;99.90;;;;;;5035516;28;20597;-46
2023/04/21 04:42:24;;;;;;;27.40;19.13;;;5.70;99.90;;;;;;5035480;28;20275;-45
2023/04/21 04:44:53;;;;;;;25.40;18.40;;;5.70;99.90;;;;;;5035275;28;20544;-47
2023/04/21 04:47:19;;;;;;;26.37;18.87;;;5.70;99.90;;;;;;5035151;28;20205;-45
2023/04/21 04:49:45;;;;;;;25.67;18.90;;;5.60;99.90;;;;;;5036970;28;20201;-49
2023/04/21 04:52:11;;;;;;;27.13;18.20;;;5.60;99.90;;;;;;5034960;28;20653;-50
2023/04/21 04:54:36;;;;;;;29.53;19.33;;;5.60;99.90;;;;;;5035009;28;20294;-51
2023/04/21 04:57:02;;;;;;;25.63;18.40;;;5.60;99.90;;;;;;5034828;28;20208;-50
2023/04/21 04:59:29;;;;;;;28.20;18.70;;;5.60;99.90;;;;;;5035187;28;20267;-50
2023/04/21 05:01:55;;;;;;;24.03;18.07;;;5.60;99.90;;;;;;5034769;28;20197;-51
2023/04/21 05:04:20;;;;;;;26.47;18.43;;;5.60;99.90;;;;;;5035097;28;20267;-51
2023/04/21 05:06:46;;;;;;;27.73;18.30;;;5.70;99.90;;;;;;5034760;28;20207;-48
2023/04/21 05:09:11;;;;;;;25.83;18.03;;;5.70;99.90;;;;;;5034714;28;20523;-49
2023/04/21 05:11:37;;;;;;;27.07;18.40;;;5.70;99.90;;;;;;5034629;28;20208;-50
2023/04/21 05:14:03;;;;;;;25.30;17.97;;;5.70;99.90;;;;;;5034873;28;20181;-50
2023/04/21 05:16:28;;;;;;;25.70;17.97;;;5.80;99.90;;;;;;5035140;28;20208;-51
2023/04/21 05:18:54;;;;;;;27.50;18.07;;;5.80;99.90;;;;;;5034502;28;20688;-49
2023/04/21 05:21:28;;;;;;;28.67;19.13;;;5.80;99.90;;;;;;5034436;28;20177;-49
2023/04/21 05:23:55;;;;;;;27.00;18.53;;;5.80;99.90;;;;;;5034698;28;20183;-50
2023/04/21 05:26:21;;;;;;;30.10;18.83;;;5.90;99.90;;;;;;5034377;28;20200;-50
2023/04/21 05:28:47;;;;;;;28.80;18.40;;;5.90;99.90;;;;;;5034363;28;20184;-50
2023/04/21 05:31:13;;;;;;;27.30;19.37;;;5.90;99.90;;;;;;5016685;28;20187;-51
2023/04/21 05:33:38;;;;;;;26.63;18.57;;;5.90;99.90;;;;;;5034235;28;20644;-50
2023/04/21 05:36:08;;;;;;;26.50;18.17;;;5.90;99.90;;;;;;5034125;28;20676;-50
2023/04/21 05:38:34;;;;;;;25.83;17.57;;;6.00;99.90;;;;;;5034165;28;20316;-50
2023/04/21 05:41:00;;;;;;;24.87;16.00;;;6.10;99.90;;;;;;5034096;28;20176;-49
2023/04/21 05:43:26;;;;;;;29.33;18.17;;;6.20;99.90;;;;;;5033963;28;20205;-51
2023/04/21 05:45:52;;;;;;;22.97;15.80;;;6.30;99.90;;;;;;5034337;28;20185;-50
2023/04/21 05:48:17;;;;;;;24.53;16.93;;;6.40;99.90;;;;;;5035823;28;20200;-50
2023/04/21 05:50:43;;;;;;;25.50;18.03;;;6.50;99.90;;;;;;5034056;28;20192;-52
2023/04/21 05:53:08;;;;;;;26.03;16.93;;;6.60;99.90;;;;;;5016143;28;20196;-51
2023/04/21 05:55:35;;;;;;;25.80;17.23;;;6.70;99.90;;;;;;5034107;28;20207;-48
2023/04/21 05:58:00;;;;;;;23.70;16.77;;;6.80;99.90;;;;;;5033818;28;20190;-47
2023/04/21 06:00:26;;;;;;;29.93;17.93;;;6.80;99.90;;;;;;5033838;28;20175;-48
2023/04/21 06:02:52;;;;;;;26.80;19.20;;;6.90;99.90;;;;;;5033710;28;20237;-48
2023/04/21 06:05:17;;;;;;;24.43;18.10;;;6.90;99.90;;;;;;5033987;28;20192;-48
2023/04/21 06:07:43;;;;;;;26.57;17.23;;;7.00;99.90;;;;;;5033686;28;20638;-48
2023/04/21 06:10:10;;;;;;;25.27;18.47;;;7.00;99.90;;;;;;5033487;28;20177;-48
2023/04/21 06:12:35;;;;;;;25.70;17.57;;;7.20;99.90;;;;;;5033552;28;20197;-49
2023/04/21 06:15:01;;;;;;;27.77;17.80;;;7.30;99.90;;;;;;5034522;28;20184;-46
2023/04/21 06:17:27;;;;;;;23.43;16.47;;;7.40;99.90;;;;;;5033790;28;20181;-47
2023/04/21 06:19:54;;;;;;;23.73;16.80;;;7.50;99.90;;;;;;5033597;28;20185;-47
2023/04/21 06:22:23;;;;;;;23.30;17.07;;;7.70;99.90;;;;;;5033385;28;20203;-46
2023/04/21 06:24:48;;;;;;;20.17;14.73;;;7.90;99.90;;;;;;5033429;28;20184;-46
2023/04/21 06:27:14;;;;;;;26.73;17.10;;;8.10;99.90;;;;;;5033637;28;20184;-46
2023/04/21 06:29:43;;;;;;;25.07;17.20;;;8.20;99.90;;;;;;5033673;28;20179;-47
2023/04/21 06:32:10;;;;;;;24.07;16.63;;;8.40;99.90;;;;;;5033244;28;20201;-46
2023/04/21 06:34:36;;;;;;;24.80;16.93;;;8.60;99.90;;;;;;5034128;28;20185;-47
2023/04/21 06:37:02;;;;;;;25.30;16.57;;;8.70;99.90;;;;;;5033261;28;20196;-52
2023/04/21 06:39:28;;;;;;;21.97;14.63;;;9.00;99.90;;;;;;5033253;28;20173;-51
2023/04/21 06:41:53;;;;;;;23.10;15.70;;;9.10;99.90;;;;;;5033718;28;20193;-50
2023/04/21 06:44:19;;;;;;;22.03;16.23;;;9.20;99.90;;;;;;5033495;28;20190;-50
2023/04/21 06:46:46;;;;;;;21.47;15.77;;;9.30;99.90;;;;;;5033370;28;20645;-52
2023/04/21 06:49:11;;;;;;;23.70;16.43;;;9.40;99.90;;;;;;5035387;28;20209;-45
2023/04/21 06:51:37;;;;;;;24.83;15.63;;;9.50;99.90;;;;;;5033291;28;20207;-46
2023/04/21 06:54:04;;;;;;;21.97;16.27;;;9.70;99.90;;;;;;5015476;28;20245;-46
2023/04/21 06:56:30;;;;;;;21.73;15.40;;;9.70;99.90;;;;;;5033256;28;20216;-46
2023/04/21 06:58:55;;;;;;;21.40;15.23;;;11.10;99.90;;;;;;5033398;28;20183;-47
2023/04/21 07:01:23;;;;;;;20.67;15.57;;;10.00;99.90;;;;;;5033232;28;20184;-49
2023/04/21 07:03:49;;;;;;;21.03;14.80;;;10.10;99.90;;;;;;5033038;28;20636;-48
2023/04/21 07:06:15;;;;;;;19.17;14.40;;;10.10;99.90;;;;;;5033104;28;20645;-46
2023/04/21 07:08:40;;;;;;;21.20;15.47;;;10.10;99.90;;;;;;5032990;28;20195;-49
2023/04/21 07:11:06;;;;;;;19.90;14.90;;;10.10;99.90;;;;;;5033043;28;20264;-46
2023/04/21 07:13:31;;;;;;;19.60;13.17;;;10.20;99.90;;;;;;5033668;28;20205;-46
2023/04/21 07:15:57;;;;;;;19.90;14.53;;;10.30;99.90;;;;;;5032845;28;20215;-48
2023/04/21 07:18:23;;;;;;;21.37;14.97;;;10.40;99.90;;;;;;5033189;28;20546;-48
2023/04/21 07:20:48;;;;;;;19.73;14.73;;;10.50;99.90;;;;;;5034585;28;20181;-47
2023/04/21 07:23:14;;;;;;;19.00;14.03;;;10.60;99.90;;;;;;5036729;28;20661;-48
2023/04/21 07:25:39;;;;;;;16.87;13.77;;;10.70;99.90;;;;;;5036935;28;20185;-49
2023/04/21 07:28:05;;;;;;;18.63;14.37;;;10.80;99.90;;;;;;5036889;28;20188;-47
2023/04/21 07:30:31;;;;;;;16.40;12.83;;;10.80;99.90;;;;;;5037134;28;20177;-46
2023/04/21 07:32:57;;;;;;;17.73;13.30;;;10.90;99.90;;;;;;5036537;28;20286;-49
2023/04/21 07:35:23;;;;;;;15.17;11.23;;;11.00;99.90;;;;;;5036425;28;20663;-49
2023/04/21 07:37:49;;;;;;;17.60;13.87;;;11.10;99.90;;;;;;5036580;28;20192;-47
2023/04/21 07:40:14;;;;;;;17.23;12.80;;;11.10;99.90;;;;;;5036505;28;20184;-47
2023/04/21 07:42:40;;;;;;;17.10;13.33;;;11.20;99.90;;;;;;5036278;28;20259;-46
2023/04/21 07:45:06;;;;;;;17.10;13.97;;;11.20;99.90;;;;;;5018607;28;20176;-45
2023/04/21 07:47:32;;;;;;;18.43;13.67;;;11.30;99.90;;;;;;5036134;28;20637;-47
2023/04/21 07:49:58;;;;;;;17.20;13.77;;;11.40;99.90;;;;;;5037709;28;20178;-51
2023/04/21 07:52:24;;;;;;;19.27;13.30;;;11.50;99.90;;;;;;5036093;28;20247;-51
2023/04/21 07:54:50;;;;;;;14.67;12.80;;;11.60;99.90;;;;;;5018424;28;20268;-50
2023/04/21 07:57:15;;;;;;;14.87;12.47;;;11.60;99.90;;;;;;5036030;28;20296;-52
2023/04/21 07:59:41;;;;;;;20.40;13.23;;;11.60;99.90;;;;;;5036184;28;20192;-50
2023/04/21 08:02:07;;;;;;;16.40;12.17;;;11.70;99.90;;;;;;5035987;28;20574;-51
2023/04/21 08:04:33;;;;;;;16.13;11.47;;;11.80;99.90;;;;;;5038519;28;20522;-50
2023/04/21 08:06:58;;;;;;;18.00;13.57;;;11.90;99.90;;;;;;5037552;28;20185;-51
2023/04/21 08:09:24;;;;;;;17.90;13.23;;;12.00;99.90;;;;;;5035892;28;20185;-49
2023/04/21 08:11:50;;;;;;;16.13;11.93;;;12.00;99.90;;;;;;5036122;28;20205;-50
2023/04/21 08:14:16;;;;;;;16.40;11.97;;;12.10;99.90;;;;;;5035767;28;20181;-52
2023/04/21 08:16:41;;;;;;;15.83;13.40;;;12.10;99.90;;;;;;5035701;28;20232;-49
2023/04/21 08:19:08;;;;;;;18.53;12.87;;;12.20;99.90;;;;;;5036039;28;20189;-50
2023/04/21 08:21:34;;;;;;;22.43;13.63;;;12.20;99.90;;;;;;5035854;28;20205;-49
2023/04/21 08:24:00;;;;;;;17.20;13.13;;;12.40;99.90;;;;;;5035549;28;20633;-49
2023/04/21 08:26:25;;;;;;;17.57;13.00;;;12.40;99.90;;;;;;5035724;28;20185;-49
2023/04/21 08:28:51;;;;;;;22.57;15.67;;;12.50;99.90;;;;;;5036406;28;20185;-50
2023/04/21 08:31:18;;;;;;;17.03;13.27;;;12.60;99.90;;;;;;5035303;28;20200;-49
2023/04/21 08:33:44;;;;;;;15.50;11.03;;;12.70;99.90;;;;;;5035482;28;20188;-51
2023/04/21 08:36:10;;;;;;;16.03;12.47;;;12.80;99.90;;;;;;5035604;28;20212;-50
2023/04/21 08:38:36;;;;;;;18.70;12.67;;;12.90;99.90;;;;;;5035717;28;20185;-51
2023/04/21 08:41:03;;;;;;;17.97;13.23;;;12.90;99.90;;;;;;5035342;28;20653;-50
2023/04/21 08:43:29;;;;;;;17.33;13.07;;;12.90;99.90;;;;;;5035182;28;20196;-51
2023/04/21 08:45:55;;;;;;;17.00;12.97;;;13.10;99.90;;;;;;5035809;28;20191;-50
2023/04/21 08:48:29;;;;;;;20.77;15.07;;;13.20;99.90;;;;;;5036165;28;20276;-51
2023/04/21 08:50:55;;;;;;;19.10;14.40;;;13.20;99.90;;;;;;5035494;28;20212;-48
2023/04/21 08:53:21;;;;;;;15.17;12.70;;;13.30;99.90;;;;;;5035310;28;20208;-48
2023/04/21 08:55:52;;;;;;;16.50;12.57;;;13.50;99.90;;;;;;5035024;28;20311;-46
2023/04/21 08:58:18;;;;;;;19.13;13.40;;;13.50;99.90;;;;;;5035309;28;20500;-48
2023/04/21 09:00:43;;;;;;;16.53;11.17;;;13.50;99.90;;;;;;5035661;28;20230;-48
2023/04/21 09:03:09;;;;;;;17.27;14.03;;;13.40;99.90;;;;;;5034861;28;20560;-48
2023/04/21 09:05:36;;;;;;;21.70;14.20;;;13.30;99.90;;;;;;5035188;28;20185;-46
2023/04/21 09:08:10;;;;;;;21.03;15.23;;;13.30;99.90;;;;;;5034783;28;20177;-49
2023/04/21 09:10:48;;;;;;;19.60;15.50;;;13.40;99.90;;;;;;5034769;28;20641;-48
2023/04/21 09:13:16;;;;;;;19.67;15.50;;;13.40;99.90;;;;;;5034670;28;20208;-48
2023/04/21 09:15:51;;;;;;;20.87;15.93;;;13.50;99.90;;;;;;5034810;28;20287;-47
2023/04/21 09:18:18;;;;;;;21.77;16.40;;;13.50;99.90;;;;;;5034905;28;20186;-47
2023/04/21 09:20:45;;;;;;;20.43;15.37;;;13.60;99.90;;;;;;5035092;28;20175;-48
2023/04/21 09:23:11;;;;;;;20.37;15.97;;;13.80;99.90;;;;;;5034668;28;20204;-48
2023/04/21 09:25:42;;;;;;;20.97;15.10;;;14.00;99.90;;;;;;5034476;28;20188;-49
2023/04/21 09:28:08;;;;;;;19.60;14.97;;;14.20;99.90;;;;;;5034669;28;20193;-48
2023/04/21 09:30:36;;;;;;;20.93;15.33;;;14.30;99.90;;;;;;5034627;28;20665;-49
2023/04/21 09:33:01;;;;;;;20.73;16.50;;;14.30;99.90;;;;;;5034825;28;20249;-48
2023/04/21 09:35:35;;;;;;;20.97;16.60;;;14.30;99.90;;;;;;5034162;28;20740;-47
2023/04/21 09:38:02;;;;;;;19.93;15.27;;;14.40;99.90;;;;;;5034475;28;20180;-49
2023/04/21 09:40:30;;;;;;;19.00;14.73;;;14.40;99.90;;;;;;5034399;28;20173;-48
2023/04/21 09:42:56;;;;;;;21.60;15.33;;;14.30;99.90;;;;;;5033313;28;20254;-49
2023/04/21 09:45:26;;;;;;;21.73;15.07;;;14.30;99.90;;;;;;5017278;28;20189;-48
2023/04/21 09:47:55;;;;;;;21.37;16.37;;;14.30;99.90;;;;;;5034179;28;20197;-47
2023/04/21 09:50:22;;;;;;;20.03;16.57;;;14.40;99.90;;;;;;5036215;28;20173;-50
2023/04/21 09:52:50;;;;;;;22.03;17.00;;;14.50;99.90;;;;;;5033907;28;20232;-50
2023/04/21 09:55:18;;;;;;;19.97;15.20;;;14.70;99.90;;;;;;5033812;28;20637;-48
2023/04/21 09:57:46;;;;;;;19.13;14.77;;;14.70;99.90;;;;;;5033970;28;20177;-50
2023/04/21 10:00:13;;;;;;;26.90;17.70;;;14.70;99.90;;;;;;5016341;28;20219;-48
2023/04/21 10:02:43;;;;;;;22.07;15.17;;;14.70;99.90;;;;;;5016040;28;20201;-48
2023/04/21 10:05:10;;;;;;;14.60;11.07;;;14.80;99.90;;;;;;5033737;28;20173;-50
2023/04/21 10:07:36;;;;;;;18.80;13.33;;;14.80;99.90;;;;;;5034008;28;20180;-50
2023/04/21 10:10:02;;;;;;;19.37;14.97;;;14.80;99.90;;;;;;5033728;28;20306;-50
2023/04/21 10:12:28;;;;;;;19.13;14.37;;;14.80;99.90;;;;;;5033921;28;20193;-49
2023/04/21 10:14:55;;;;;;;18.90;14.03;;;14.90;99.90;;;;;;5033883;28;20197;-49
2023/04/21 10:17:23;;;;;;;17.93;13.90;;;15.00;99.90;;;;;;5033779;28;20204;-49
2023/04/21 10:19:55;;;;;;;15.50;12.73;;;15.10;99.90;;;;;;5033593;28;20169;-48
2023/04/21 10:22:32;;;;;;;13.33;10.13;;;15.20;99.90;;;;;;5033780;28;20201;-49
2023/04/21 10:25:00;;;;;;;13.47;11.03;;;15.20;99.90;;;;;;5033391;28;20176;-50
2023/04/21 10:27:38;;;;;;;10.57;8.50;;;15.40;99.90;;;;;;5033740;28;20223;-50
2023/04/21 10:30:27;;;;;;;13.40;9.90;;;15.60;99.90;;;;;;5033463;28;20296;-50
2023/04/21 10:33:06;;;;;;;11.73;9.57;;;15.70;99.90;;;;;;5033365;28;20545;-49
2023/04/21 10:36:10;;;;;;;11.83;8.13;;;15.80;99.90;;;;;;5033378;28;20204;-52
2023/04/21 10:38:41;;;;;;;15.63;10.43;;;15.80;99.90;;;;;;4953431;29;20237;-48
2023/04/21 10:41:32;;;;;;;12.30;9.90;;;15.90;99.90;;;;;;4953248;29;20667;-49
2023/04/21 10:44:13;;;;;;;13.30;10.23;;;15.90;99.90;;;;;;5007371;28;20682;-49
2023/04/21 10:46:39;;;;;;;12.17;9.60;;;15.90;99.90;;;;;;5033588;28;20172;-50
2023/04/21 10:49:11;;;;;;;13.63;10.03;;;15.80;99.90;;;;;;5034479;28;20669;-50
2023/04/21 10:51:59;;;;;;;12.83;10.80;;;15.90;99.90;;;;;;5034742;28;20617;-49
2023/04/21 10:54:26;;;;;;;11.73;9.00;;;15.90;99.90;;;;;;5034076;28;20227;-47
2023/04/21 10:56:56;;;;;;;11.10;8.87;;;15.90;99.90;;;;;;5037553;28;20554;-48
2023/04/21 10:59:23;;;;;;;10.97;8.90;;;15.80;99.90;;;;;;5037267;28;20572;-48
2023/04/21 11:01:48;;;;;;;11.67;8.70;;;15.80;99.90;;;;;;5037542;28;20231;-47
2023/04/21 11:04:20;;;;;;;13.10;10.67;;;15.90;99.90;;;;;;5037880;28;20537;-48
2023/04/21 11:07:09;;;;;;;14.23;9.93;;;16.00;99.90;;;;;;5037147;28;20180;-48
2023/04/21 11:09:36;;;;;;;11.43;9.20;;;16.00;99.90;;;;;;5037771;28;20177;-48
2023/04/21 11:12:10;;;;;;;10.87;9.33;;;16.20;99.90;;;;;;5037649;28;20205;-47
2023/04/21 11:14:37;;;;;;;12.50;10.23;;;16.40;99.90;;;;;;5036986;28;20244;-52
2023/04/21 11:17:04;;;;;;;12.37;9.50;;;16.50;99.90;;;;;;5019004;28;20208;-53
2023/04/21 11:19:32;;;;;;;9.43;7.80;;;16.60;99.90;;;;;;5036870;28;20517;-52
2023/04/21 11:21:58;;;;;;;10.33;8.23;;;16.70;99.90;;;;;;5036697;28;20223;-51
2023/04/21 11:24:24;;;;;;;10.67;8.90;;;16.80;99.90;;;;;;5036774;28;20646;-45
2023/04/21 11:26:51;;;;;;;11.67;9.73;;;17.00;99.90;;;;;;5037005;28;20705;-45
2023/04/21 11:29:17;;;;;;;11.27;9.27;;;17.00;99.90;;;;;;5036958;28;20212;-47
2023/04/21 11:31:46;;;;;;;11.97;9.47;;;17.00;99.90;;;;;;5036917;28;20204;-47
2023/04/21 11:34:14;;;;;;;11.27;9.83;;;17.00;99.90;;;;;;5036850;28;20181;-47
2023/04/21 11:36:44;;;;;;;13.97;10.87;;;17.10;99.90;;;;;;5018940;28;20276;-47
2023/04/21 11:39:12;;;;;;;11.83;9.60;;;17.10;99.90;;;;;;5036896;28;20158;-45
2023/04/21 11:41:42;;;;;;;12.00;9.80;;;17.20;99.90;;;;;;5036967;28;20544;-46
2023/04/21 11:44:12;;;;;;;11.47;9.87;;;17.20;99.90;;;;;;5018818;28;20177;-48
2023/04/21 11:46:45;;;;;;;14.67;8.73;;;17.20;99.90;;;;;;5036846;28;20169;-46
2023/04/21 11:49:12;;;;;;;14.60;10.03;;;17.20;99.90;;;;;;5038761;28;20219;-50
2023/04/21 11:51:42;;;;;;;13.90;10.67;;;17.30;99.90;;;;;;5036191;28;20196;-52
2023/04/21 11:54:12;;;;;;;12.40;9.80;;;17.20;99.90;;;;;;5036535;28;20204;-51
2023/04/21 11:56:44;;;;;;;12.77;9.57;;;17.20;99.90;;;;;;5036384;28;20200;-52
2023/04/21 11:59:12;;;;;;;11.47;9.40;;;17.30;99.90;;;;;;5019186;28;20517;-51
2023/04/21 12:01:52;;;;;;;10.70;9.33;;;17.50;99.90;;;;;;5036220;28;20279;-53
2023/04/21 12:04:21;;;;;;;11.77;9.47;;;17.60;99.90;;;;;;5036042;28;20215;-52
2023/04/21 12:06:58;;;;;;;11.67;9.43;;;17.70;99.90;;;;;;5035155;28;20641;-51
2023/04/21 12:09:24;;;;;;;12.90;8.33;;;17.70;99.90;;;;;;5035954;28;20165;-51
2023/04/21 12:11:52;;;;;;;11.40;8.50;;;17.80;99.90;;;;;;5036060;28;20201;-52
2023/04/21 12:14:19;;;;;;;12.80;10.20;;;17.80;99.90;;;;;;5035922;28;20228;-51
2023/04/21 12:16:49;;;;;;;11.97;9.13;;;17.80;99.90;;;;;;5036049;28;20189;-51
2023/04/21 12:19:34;;;;;;;11.27;7.97;;;17.80;99.90;;;;;;5035703;28;20238;-50
2023/04/21 12:22:00;;;;;;;10.27;7.43;;;17.90;99.90;;;;;;5017886;28;20205;-51
2023/04/21 12:24:25;;;;;;;11.40;8.83;;;18.10;99.90;;;;;;5035928;28;20273;-51
2023/04/21 12:26:51;;;;;;;9.80;8.13;;;18.10;99.90;;;;;;5035866;28;20188;-52
2023/04/21 12:29:17;;;;;;;10.03;7.43;;;18.20;99.90;;;;;;5035691;28;20688;-51
2023/04/21 12:31:42;;;;;;;11.17;7.87;;;18.30;99.90;;;;;;5017671;28;20200;-50
2023/04/21 12:34:08;;;;;;;9.90;8.63;;;18.40;99.90;;;;;;5035440;28;20212;-51